Time;durP1;ratioP1;P1;durP2;ratioP2;P2;SDS_P1;SDS_P2;PMS_P1;PMS_P2;Temp;Humidity;BMP_temperature;BMP_pressure;BME280_temperature;BME280_humidity;BME280_pressure;Samples;Min_cycle;Max_cycle;Signal;HPM_P1;HPM_P2
2021/03/09 00:00:17;;;;;;;;;;;;;;;3.68;93.57;99422.00;5054609;28;20271;-78
2021/03/09 00:02:43;;;;;;;;;;;;;;;3.60;93.26;99422.81;5036161;28;19962;-79
2021/03/09 00:05:08;;;;;;;;;;;;;;;3.55;93.37;99421.13;5053151;28;20446;-77
2021/03/09 00:07:34;;;;;;;;;;;;;;;3.69;93.37;99413.50;5049967;28;19921;-79
2021/03/09 00:09:59;;;;;;;;;;;;;;;3.05;94.99;99414.13;5036464;28;19939;-78
2021/03/09 00:12:24;;;;;;;;;;;;;;;3.09;96.36;99410.75;5034956;28;20007;-79
2021/03/09 00:14:50;;;;;;;;;;;;;;;2.93;97.10;99412.38;5037393;28;19959;-78
2021/03/09 00:17:15;;;;;;;;;;;;;;;2.87;97.44;99409.81;5018271;28;20125;-78
2021/03/09 00:19:41;;;;;;;;;;;;;;;2.75;96.58;99407.19;5038983;28;19913;-77
2021/03/09 00:22:06;;;;;;;;;;;;;;;2.63;97.51;99397.78;5049425;28;19920;-77
2021/03/09 00:24:31;;;;;;;;;;;;;;;2.48;99.69;99406.16;5054283;28;19916;-77
2021/03/09 00:26:57;;;;;;;;;;;;;;;2.53;99.06;99401.09;5051450;28;20481;-77
2021/03/09 00:29:22;;;;;;;;;;;;;;;2.53;98.83;99397.72;5028455;28;19939;-77
2021/03/09 00:31:48;;;;;;;;;;;;;;;2.91;98.15;99397.94;5051212;28;19981;-79
2021/03/09 00:34:13;;;;;;;;;;;;;;;2.62;98.60;99397.78;5036718;28;20262;-79
2021/03/09 00:36:38;;;;;;;;;;;;;;;2.68;98.80;99392.72;5054555;28;19924;-78
2021/03/09 00:39:04;;;;;;;;;;;;;;;2.78;98.12;99393.63;5053425;28;20284;-77
2021/03/09 00:41:29;;;;;;;;;;;;;;;2.62;98.12;99390.13;5053165;28;19935;-77
2021/03/09 00:43:55;;;;;;;;;;;;;;;2.70;99.04;99381.72;5017050;28;19917;-77
2021/03/09 00:46:20;;;;;;;;;;;;;;;2.70;98.44;99376.63;5053193;28;19948;-79
2021/03/09 00:48:45;;;;;;;;;;;;;;;2.86;96.89;99376.72;5054057;28;19923;-78
2021/03/09 00:51:11;;;;;;;;;;;;;;;2.62;98.84;99382.50;5036387;28;19920;-78
2021/03/09 00:53:36;;;;;;;;;;;;;;;2.70;98.49;99380.88;5020042;28;19944;-78
2021/03/09 00:56:02;;;;;;;;;;;;;;;2.95;96.27;99365.75;5017141;28;19920;-77
2021/03/09 00:58:27;;;;;;;;;;;;;;;2.82;97.89;99372.47;5051515;28;19929;-78
2021/03/09 01:00:52;;;;;;;;;;;;;;;3.15;95.53;99369.22;5052756;28;19916;-77
2021/03/09 01:03:18;;;;;;;;;;;;;;;3.11;94.97;99363.28;5052424;28;19913;-77
2021/03/09 01:05:43;;;;;;;;;;;;;;;3.00;96.02;99364.91;5052667;28;19921;-77
2021/03/09 01:08:08;;;;;;;;;;;;;;;3.29;95.21;99362.50;5053501;28;21013;-78
2021/03/09 01:10:34;;;;;;;;;;;;;;;3.29;94.63;99359.94;5036374;28;20338;-78
2021/03/09 01:12:59;;;;;;;;;;;;;;;3.03;95.00;99353.91;5053812;28;19999;-78
2021/03/09 01:15:25;;;;;;;;;;;;;;;3.16;94.75;99352.25;5051283;28;19932;-77
2021/03/09 01:17:50;;;;;;;;;;;;;;;3.38;92.86;99353.19;5036633;28;19916;-78
2021/03/09 01:20:16;;;;;;;;;;;;;;;3.52;93.20;99352.34;5033900;28;19939;-79
2021/03/09 01:22:41;;;;;;;;;;;;;;;3.69;91.13;99349.84;5050223;28;19924;-78
2021/03/09 01:25:07;;;;;;;;;;;;;;;3.37;92.71;99343.84;5035562;28;19913;-79
2021/03/09 01:27:33;;;;;;;;;;;;;;;3.06;93.83;99348.84;5033851;28;19975;-79
2021/03/09 01:29:58;;;;;;;;;;;;;;;3.42;92.92;99352.31;5035545;28;19976;-77
2021/03/09 01:32:24;;;;;;;;;;;;;;;3.24;93.24;99348.03;5034894;28;20768;-77
2021/03/09 01:34:49;;;;;;;;;;;;;;;3.23;93.85;99341.25;5036361;28;19920;-78
2021/03/09 01:37:14;;;;;;;;;;;;;;;3.22;94.33;99344.66;5051480;28;20004;-77
2021/03/09 01:39:40;;;;;;;;;;;;;;;2.91;94.40;99337.75;5049848;28;20603;-78
2021/03/09 01:42:05;;;;;;;;;;;;;;;3.05;94.65;99342.03;5034905;28;19916;-77
2021/03/09 01:44:31;;;;;;;;;;;;;;;2.72;95.73;99338.50;5032655;28;19916;-77
2021/03/09 01:47:01;;;;;;;;;;;;;;;3.11;93.97;99335.28;5018571;28;19968;-78
2021/03/09 01:49:27;;;;;;;;;;;;;;;3.13;93.62;99336.13;5039815;28;20001;-77
2021/03/09 01:51:53;;;;;;;;;;;;;;;3.54;91.82;99332.84;5037905;28;19931;-78
2021/03/09 01:54:18;;;;;;;;;;;;;;;3.31;92.30;99337.06;5036653;28;19917;-78
2021/03/09 01:56:43;;;;;;;;;;;;;;;3.22;93.29;99330.22;5038849;28;19928;-78
2021/03/09 01:59:09;;;;;;;;;;;;;;;2.93;93.52;99328.41;5054367;28;19961;-78
2021/03/09 02:01:35;;;;;;;;;;;;;;;2.69;95.18;99328.31;5053910;28;19991;-79
2021/03/09 02:04:00;;;;;;;;;;;;;;;2.90;94.34;99323.34;5037143;28;19948;-78
2021/03/09 02:06:25;;;;;;;;;;;;;;;3.21;93.02;99328.50;5038361;28;19912;-77
2021/03/09 02:08:51;;;;;;;;;;;;;;;3.26;91.48;99321.75;5054847;28;19913;-77
2021/03/09 02:11:31;;;;;;;;;;;;;;;3.09;93.10;99315.75;5054905;28;19972;-77
2021/03/09 02:13:59;;;;;;;;;;;;;;;2.96;93.63;99317.41;5054833;28;19917;-79
2021/03/09 02:16:25;;;;;;;;;;;;;;;3.40;92.62;99310.75;5037434;28;19927;-79
2021/03/09 02:18:54;;;;;;;;;;;;;;;3.54;92.05;99312.47;5037635;28;19967;-77
2021/03/09 02:21:26;;;;;;;;;;;;;;;3.67;90.46;99303.16;5036935;28;19913;-77
2021/03/09 02:23:53;;;;;;;;;;;;;;;3.58;90.50;99307.38;5037730;28;20382;-77
2021/03/09 02:26:31;;;;;;;;;;;;;;;3.33;92.01;99307.31;5039764;28;19913;-78
2021/03/09 02:29:00;;;;;;;;;;;;;;;2.90;94.22;99302.97;5051226;28;19917;-79
2021/03/09 02:31:26;;;;;;;;;;;;;;;3.22;93.67;99298.84;5051715;28;20092;-79
2021/03/09 02:33:54;;;;;;;;;;;;;;;3.38;92.06;99292.09;5038845;28;20439;-77
2021/03/09 02:36:20;;;;;;;;;;;;;;;3.67;90.59;99292.09;5019546;28;19928;-79
2021/03/09 02:38:56;;;;;;;;;;;;;;;3.59;91.68;99294.66;5035231;28;20390;-79
2021/03/09 02:41:22;;;;;;;;;;;;;;;3.11;93.60;99281.84;5035499;28;19916;-78
2021/03/09 02:43:48;;;;;;;;;;;;;;;3.41;92.82;99279.38;5039039;28;19913;-79
2021/03/09 02:46:14;;;;;;;;;;;;;;;3.51;90.99;99286.16;5051988;28;19928;-79
2021/03/09 02:48:40;;;;;;;;;;;;;;;3.29;92.26;99278.50;5039873;28;19917;-79
2021/03/09 02:51:05;;;;;;;;;;;;;;;3.37;91.59;99270.00;5033880;28;19927;-79
2021/03/09 02:53:31;;;;;;;;;;;;;;;3.32;92.46;99270.84;5053966;28;20039;-79
2021/03/09 02:55:57;;;;;;;;;;;;;;;3.06;93.27;99269.97;5036129;28;20297;-79
2021/03/09 02:58:22;;;;;;;;;;;;;;;3.19;92.82;99273.38;5052204;28;19963;-77
2021/03/09 03:00:52;;;;;;;;;;;;;;;3.05;93.39;99265.72;5054721;28;20569;-79
2021/03/09 03:03:17;;;;;;;;;;;;;;;3.14;92.69;99263.19;5056366;28;19916;-78
2021/03/09 03:05:43;;;;;;;;;;;;;;;3.25;92.49;99255.56;5050527;28;19986;-79
2021/03/09 03:08:09;;;;;;;;;;;;;;;3.30;92.66;99257.28;5035317;28;19917;-79
2021/03/09 03:10:35;;;;;;;;;;;;;;;3.22;92.54;99258.97;5036607;28;21022;-79
2021/03/09 03:13:00;;;;;;;;;;;;;;;3.17;93.03;99257.25;5035014;28;20298;-79
2021/03/09 03:15:26;;;;;;;;;;;;;;;3.19;92.91;99248.75;5020137;28;19923;-79
2021/03/09 03:17:51;;;;;;;;;;;;;;;3.23;93.50;99249.63;5020123;28;19970;-78
2021/03/09 03:20:17;;;;;;;;;;;;;;;3.38;92.22;99249.66;5052859;28;19912;-79
2021/03/09 03:22:43;;;;;;;;;;;;;;;3.34;91.92;99248.78;5037618;28;20390;-79
2021/03/09 03:25:09;;;;;;;;;;;;;;;3.37;91.62;99247.09;5027770;28;19928;-79
2021/03/09 03:27:35;;;;;;;;;;;;;;;3.42;90.78;99240.31;5052819;28;19920;-79
2021/03/09 03:30:00;;;;;;;;;;;;;;;3.34;92.26;99242.88;5035558;28;20019;-77
2021/03/09 03:32:26;;;;;;;;;;;;;;;3.38;92.53;99236.09;5037158;28;19913;-77
2021/03/09 03:34:51;;;;;;;;;;;;;;;3.48;91.89;99235.22;5036105;28;19962;-79
2021/03/09 03:37:16;;;;;;;;;;;;;;;3.32;92.53;99235.22;5054682;28;20393;-78
2021/03/09 03:39:42;;;;;;;;;;;;;;;3.30;92.04;99236.06;5036493;28;19935;-79
2021/03/09 03:42:07;;;;;;;;;;;;;;;3.29;92.43;99236.94;5035070;28;19917;-79
2021/03/09 03:44:33;;;;;;;;;;;;;;;3.34;91.47;99233.53;5051642;28;19955;-78
2021/03/09 03:46:58;;;;;;;;;;;;;;;3.01;93.23;99238.56;5036480;28;19917;-79
2021/03/09 03:49:24;;;;;;;;;;;;;;;3.29;92.61;99239.47;5053436;28;20019;-78
2021/03/09 03:51:50;;;;;;;;;;;;;;;3.04;92.84;99238.59;5053551;28;20476;-77
2021/03/09 03:54:18;;;;;;;;;;;;;;;3.17;92.40;99230.13;5035268;28;19982;-79
2021/03/09 03:56:49;;;;;;;;;;;;;;;3.35;91.70;99230.16;5019796;28;19917;-79
2021/03/09 03:59:17;;;;;;;;;;;;;;;3.38;92.41;99223.38;5052336;28;19912;-79
2021/03/09 04:01:42;;;;;;;;;;;;;;;3.41;92.43;99231.84;5052874;28;19916;-79
2021/03/09 04:04:11;;;;;;;;;;;;;;;3.59;91.28;99223.34;5053032;28;20428;-78
2021/03/09 04:06:37;;;;;;;;;;;;;;;3.42;91.25;99225.03;5052710;28;19938;-78
2021/03/09 04:09:07;;;;;;;;;;;;;;;3.28;91.73;99222.47;5032673;28;19967;-79
2021/03/09 04:11:33;;;;;;;;;;;;;;;3.46;91.30;99211.47;5036199;28;20609;-79
2021/03/09 04:13:58;;;;;;;;;;;;;;;3.29;92.38;99216.56;5034007;28;19925;-78
2021/03/09 04:16:24;;;;;;;;;;;;;;;3.29;92.46;99209.78;5049645;28;19921;-78
2021/03/09 04:18:49;;;;;;;;;;;;;;;3.40;91.34;99206.38;5033539;28;20541;-78
2021/03/09 04:21:14;;;;;;;;;;;;;;;3.29;91.44;99209.78;5034841;28;19917;-78
2021/03/09 04:23:39;;;;;;;;;;;;;;;3.23;91.44;99204.66;5033088;28;20369;-79
2021/03/09 04:26:05;;;;;;;;;;;;;;;3.29;92.10;99199.59;5035627;28;19928;-78
2021/03/09 04:28:30;;;;;;;;;;;;;;;3.18;92.16;99206.38;5051338;28;19951;-78
2021/03/09 04:30:56;;;;;;;;;;;;;;;3.33;92.35;99195.31;5051233;28;19921;-77
2021/03/09 04:33:22;;;;;;;;;;;;;;;3.36;91.46;99195.34;5050360;28;19912;-79
2021/03/09 04:35:47;;;;;;;;;;;;;;;3.18;92.69;99196.19;5051869;28;19917;-78
2021/03/09 04:38:13;;;;;;;;;;;;;;;3.14;92.74;99197.88;5036596;28;19954;-78
2021/03/09 04:40:38;;;;;;;;;;;;;;;3.11;92.31;99191.94;5051804;28;20005;-79
2021/03/09 04:43:04;;;;;;;;;;;;;;;3.29;92.38;99193.66;5034092;28;19927;-79
2021/03/09 04:45:29;;;;;;;;;;;;;;;3.13;92.01;99192.78;5048296;28;19917;-77
2021/03/09 04:47:55;;;;;;;;;;;;;;;3.21;91.84;99198.72;5034598;28;19978;-78
2021/03/09 04:50:20;;;;;;;;;;;;;;;3.08;92.73;99195.34;5034355;28;19996;-78
2021/03/09 04:52:46;;;;;;;;;;;;;;;3.03;92.57;99201.25;5032346;28;19999;-79
2021/03/09 04:55:18;;;;;;;;;;;;;;;2.90;93.67;99196.16;5053262;28;19913;-78
2021/03/09 04:57:43;;;;;;;;;;;;;;;3.07;92.72;99197.88;5048960;28;19935;-77
2021/03/09 05:00:13;;;;;;;;;;;;;;;3.09;92.62;99191.94;5049754;28;19912;-78
2021/03/09 05:02:39;;;;;;;;;;;;;;;3.19;92.70;99197.88;5034296;28;19917;-79
2021/03/09 05:05:04;;;;;;;;;;;;;;;3.25;92.08;99190.25;5049163;28;19924;-78
2021/03/09 05:07:30;;;;;;;;;;;;;;;2.90;93.50;99198.69;5048423;28;20294;-77
2021/03/09 05:09:55;;;;;;;;;;;;;;;3.10;93.38;99197.84;5050793;28;20049;-78
2021/03/09 05:12:20;;;;;;;;;;;;;;;2.89;93.67;99196.97;5050269;28;19917;-78
2021/03/09 05:14:46;;;;;;;;;;;;;;;2.80;93.73;99191.03;5051018;28;19912;-79
2021/03/09 05:17:11;;;;;;;;;;;;;;;2.99;93.60;99190.22;5032542;28;20049;-78
2021/03/09 05:19:36;;;;;;;;;;;;;;;3.11;93.33;99191.94;5032208;28;20328;-78
2021/03/09 05:22:02;;;;;;;;;;;;;;;3.01;92.70;99187.66;5016298;28;19936;-78
2021/03/09 05:24:27;;;;;;;;;;;;;;;3.07;92.65;99188.53;5031775;28;19921;-77
2021/03/09 05:26:53;;;;;;;;;;;;;;;3.06;93.39;99191.09;5034359;28;19921;-78
2021/03/09 05:29:18;;;;;;;;;;;;;;;2.98;93.75;99180.03;4990413;28;20576;-78
2021/03/09 05:31:44;;;;;;;;;;;;;;;3.06;93.90;99180.91;5009170;28;19921;-79
2021/03/09 05:34:09;;;;;;;;;;;;;;;3.02;93.54;99174.13;5035947;28;20389;-81
2021/03/09 05:36:35;;;;;;;;;;;;;;;2.72;93.90;99175.75;5008800;28;19917;-79
2021/03/09 05:39:00;;;;;;;;;;;;;;;3.11;92.69;99182.59;5015691;28;20426;-80
2021/03/09 05:41:25;;;;;;;;;;;;;;;2.95;93.38;99177.50;5032569;28;19967;-79
2021/03/09 05:43:51;;;;;;;;;;;;;;;2.77;94.21;99168.97;5009440;28;19917;-79
2021/03/09 05:46:16;;;;;;;;;;;;;;;2.69;94.00;99179.16;5015253;28;19917;-77
2021/03/09 05:48:42;;;;;;;;;;;;;;;2.82;94.18;99172.38;5017375;28;19917;-78
2021/03/09 05:51:07;;;;;;;;;;;;;;;2.84;93.79;99175.78;5012816;28;19947;-79
2021/03/09 05:53:32;;;;;;;;;;;;;;;2.77;94.94;99168.97;5009442;28;20305;-79
2021/03/09 05:55:58;;;;;;;;;;;;;;;2.72;94.79;99170.69;5017551;28;20798;-80
2021/03/09 05:58:23;;;;;;;;;;;;;;;2.80;94.99;99171.53;5013336;28;20031;-78
2021/03/09 06:00:49;;;;;;;;;;;;;;;2.80;94.48;99168.97;5035424;28;19971;-79
2021/03/09 06:03:14;;;;;;;;;;;;;;;2.72;95.17;99168.97;5015628;28;19913;-77
2021/03/09 06:05:41;;;;;;;;;;;;;;;3.01;94.16;99169.88;5018723;28;19987;-79
2021/03/09 06:08:07;;;;;;;;;;;;;;;3.02;93.94;99174.13;5032399;28;20419;-79
2021/03/09 06:10:32;;;;;;;;;;;;;;;2.91;94.57;99167.31;5008181;28;19921;-78
2021/03/09 06:12:58;;;;;;;;;;;;;;;2.77;95.09;99163.91;5008569;28;19921;-80
2021/03/09 06:15:23;;;;;;;;;;;;;;;2.74;95.99;99169.00;5009237;28;19921;-79
2021/03/09 06:17:58;;;;;;;;;;;;;;;3.01;94.64;99158.00;5009184;28;19920;-79
2021/03/09 06:20:27;;;;;;;;;;;;;;;3.07;93.41;99158.00;5001186;28;19912;-81
2021/03/09 06:22:58;;;;;;;;;;;;;;;3.04;93.79;99157.16;5005350;28;20335;-81
2021/03/09 06:25:24;;;;;;;;;;;;;;;3.07;92.96;99152.91;5028842;28;19917;-81
2021/03/09 06:27:50;;;;;;;;;;;;;;;2.86;93.41;99150.34;5035899;28;19936;-79
2021/03/09 06:30:24;;;;;;;;;;;;;;;3.22;92.67;99147.00;5032983;28;19986;-79
2021/03/09 06:32:50;;;;;;;;;;;;;;;2.78;94.55;99142.69;5033841;28;19917;-79
2021/03/09 06:35:34;;;;;;;;;;;;;;;2.94;93.41;99148.66;5035488;28;19931;-81
2021/03/09 06:38:15;;;;;;;;;;;;;;;2.94;93.68;99135.94;5049822;28;20012;-79
2021/03/09 06:40:40;;;;;;;;;;;;;;;2.81;96.16;99145.25;5049638;28;19913;-80
2021/03/09 06:43:15;;;;;;;;;;;;;;;3.12;93.58;99140.19;5052204;28;19936;-79
2021/03/09 06:45:41;;;;;;;;;;;;;;;2.98;94.43;99139.34;5032032;28;19921;-77
2021/03/09 06:48:17;;;;;;;;;;;;;;;2.73;95.62;99137.59;5033918;28;19927;-79
2021/03/09 06:50:42;;;;;;;;;;;;;;;2.69;96.56;99135.06;5010791;28;20430;-79
2021/03/09 06:53:07;;;;;;;;;;;;;;;2.92;95.62;99138.50;5031604;28;19920;-80
2021/03/09 06:55:33;;;;;;;;;;;;;;;2.83;95.63;99137.63;5011765;28;19920;-80
2021/03/09 06:58:17;;;;;;;;;;;;;;;2.82;95.50;99136.78;4999408;28;19974;-78
2021/03/09 07:00:42;;;;;;;;;;;;;;;2.81;95.74;99135.09;5049232;28;20378;-79
2021/03/09 07:03:26;;;;;;;;;;;;;;;2.68;96.59;99143.53;5011452;28;19943;-80
2021/03/09 07:05:55;;;;;;;;;;;;;;;2.62;96.63;99138.44;5051773;28;20003;-79
2021/03/09 07:08:21;;;;;;;;;;;;;;;2.74;96.79;99143.56;5027868;28;19920;-79
2021/03/09 07:10:46;;;;;;;;;;;;;;;2.65;96.55;99143.53;5011539;28;20374;-80
2021/03/09 07:13:11;;;;;;;;;;;;;;;2.85;96.07;99136.78;5050332;28;20374;-81
2021/03/09 07:15:37;;;;;;;;;;;;;;;2.78;95.30;99131.69;5028031;28;20322;-82
2021/03/09 07:18:02;;;;;;;;;;;;;;;2.73;95.90;99137.59;5012650;28;19912;-80
2021/03/09 07:20:27;;;;;;;;;;;;;;;2.93;95.98;99139.34;5028879;28;19913;-82
2021/03/09 07:22:53;;;;;;;;;;;;;;;3.03;95.89;99137.66;5009501;28;19924;-82
2021/03/09 07:25:19;;;;;;;;;;;;;;;2.71;97.05;99138.44;5019330;28;19912;-82
2021/03/09 07:27:50;;;;;;;;;;;;;;;2.59;97.16;99133.34;5011042;28;20011;-82
2021/03/09 07:30:17;;;;;;;;;;;;;;;2.78;97.38;99142.69;5031915;28;19983;-81
2021/03/09 07:32:43;;;;;;;;;;;;;;;2.89;97.37;99133.38;5004212;28;19921;-82
2021/03/09 07:35:09;;;;;;;;;;;;;;;3.03;96.64;99127.47;5025925;28;20022;-79
2021/03/09 07:37:35;;;;;;;;;;;;;;;2.79;97.65;99130.84;4995749;28;19921;-82
2021/03/09 07:40:02;;;;;;;;;;;;;;;2.99;97.29;99133.41;4996284;28;19921;-82
2021/03/09 07:42:27;;;;;;;;;;;;;;;2.97;97.59;99125.78;4999200;28;20314;-81
2021/03/09 07:44:52;;;;;;;;;;;;;;;2.96;97.23;99128.31;5007605;28;19917;-81
2021/03/09 07:47:19;;;;;;;;;;;;;;;3.00;97.56;99135.09;5006684;28;19917;-80
2021/03/09 07:49:44;;;;;;;;;;;;;;;3.01;97.46;99127.50;5006956;28;19917;-80
2021/03/09 07:52:10;;;;;;;;;;;;;;;2.99;98.46;99128.31;5009180;28;19925;-79
2021/03/09 07:54:36;;;;;;;;;;;;;;;3.13;97.64;99126.63;5021524;28;19918;-80
2021/03/09 07:57:17;;;;;;;;;;;;;;;3.21;97.19;99119.00;5006328;28;19913;-80
2021/03/09 08:00:12;;;;;;;;;;;;;;;2.95;97.28;99119.84;5022062;28;19949;-82
2021/03/09 08:02:57;;;;;;;;;;;;;;;3.11;96.83;99118.16;5002997;28;19921;-82
2021/03/09 08:05:25;;;;;;;;;;;;;;;3.05;96.98;99118.13;4979931;28;20012;-82
2021/03/09 08:07:53;;;;;;;;;;;;;;;3.15;97.13;99117.31;5004853;28;19967;-79
2021/03/09 08:10:41;;;;;;;;;;;;;;;3.19;96.86;99116.44;5003970;28;19944;-80
2021/03/09 08:13:15;;;;;;;;;;;;;;;3.19;96.42;99115.59;5002698;28;19928;-81
2021/03/09 08:15:40;;;;;;;;;;;;;;;3.07;96.93;99122.38;5022866;28;20035;-81
2021/03/09 08:18:21;;;;;;;;;;;;;;;3.27;97.01;99119.84;5006515;28;19984;-81
2021/03/09 08:20:47;;;;;;;;;;;;;;;3.13;97.27;99117.31;5021882;28;19913;-79
2021/03/09 08:23:31;;;;;;;;;;;;;;;3.45;96.06;99120.69;5024843;28;19920;-81
2021/03/09 08:25:57;;;;;;;;;;;;;;;3.51;96.62;99120.66;5028739;28;20021;-82
2021/03/09 08:28:44;;;;;;;;;;;;;;;3.48;96.04;99118.13;5046869;28;19964;-79
2021/03/09 08:31:12;;;;;;;;;;;;;;;3.64;95.50;99113.84;5022395;28;19957;-80
2021/03/09 08:33:38;;;;;;;;;;;;;;;3.53;96.16;99111.31;5023464;28;19939;-81
2021/03/09 08:36:19;;;;;;;;;;;;;;;3.28;96.52;99106.25;5038751;28;20011;-80
2021/03/09 08:39:05;;;;;;;;;;;;;;;3.47;96.90;99111.34;5028143;28;20003;-80
2021/03/09 08:41:37;;;;;;;;;;;;;;;3.56;96.03;99111.31;5016056;28;19917;-80
2021/03/09 08:44:15;;;;;;;;;;;;;;;3.55;96.90;99110.44;5021473;28;20008;-79
2021/03/09 08:46:57;;;;;;;;;;;;;;;3.64;95.92;99107.03;5029237;28;19937;-79
2021/03/09 08:49:40;;;;;;;;;;;;;;;3.59;96.66;99108.75;5028479;28;19921;-81
2021/03/09 08:52:06;;;;;;;;;;;;;;;3.51;96.73;99106.25;5008123;28;20362;-80
2021/03/09 08:54:37;;;;;;;;;;;;;;;3.44;97.17;99111.31;5011176;28;19916;-79
2021/03/09 08:57:26;;;;;;;;;;;;;;;3.54;96.62;99103.69;5016291;28;19917;-81
2021/03/09 08:59:52;;;;;;;;;;;;;;;3.55;96.52;99101.97;5014945;28;19920;-79
2021/03/09 09:02:18;;;;;;;;;;;;;;;3.56;96.87;99096.06;5049157;28;20079;-80
2021/03/09 09:05:03;;;;;;;;;;;;;;;3.68;96.18;99096.00;5049738;28;19956;-79
2021/03/09 09:07:41;;;;;;;;;;;;;;;3.61;96.02;99094.34;5018158;28;19920;-80
2021/03/09 09:10:18;;;;;;;;;;;;;;;3.53;96.71;99091.78;5018101;28;20334;-80
2021/03/09 09:12:44;;;;;;;;;;;;;;;3.82;95.76;99095.13;5034618;28;19983;-81
2021/03/09 09:15:11;;;;;;;;;;;;;;;3.59;96.21;99093.47;5051577;28;19913;-81
2021/03/09 09:17:57;;;;;;;;;;;;;;;3.61;95.66;99094.34;5036268;28;19936;-80
2021/03/09 09:20:32;;;;;;;;;;;;;;;3.60;96.35;99087.53;5035972;28;20805;-80
2021/03/09 09:23:21;;;;;;;;;;;;;;;3.77;95.63;99084.94;5024771;28;19932;-79
2021/03/09 09:25:47;;;;;;;;;;;;;;;3.82;95.72;99082.38;5050409;28;19935;-81
2021/03/09 09:28:30;;;;;;;;;;;;;;;3.83;95.68;99081.53;5019734;28;20135;-80
2021/03/09 09:30:56;;;;;;;;;;;;;;;3.91;95.61;99077.25;5054929;28;19946;-80
2021/03/09 09:33:21;;;;;;;;;;;;;;;3.91;95.54;99078.09;5051259;28;19916;-79
2021/03/09 09:35:47;;;;;;;;;;;;;;;4.14;94.90;99072.91;5034507;28;19923;-80
2021/03/09 09:38:13;;;;;;;;;;;;;;;4.21;95.38;99060.97;5052284;28;19936;-81
2021/03/09 09:40:48;;;;;;;;;;;;;;;4.11;94.99;99070.38;5014461;28;19927;-80
2021/03/09 09:43:15;;;;;;;;;;;;;;;4.06;96.36;99076.31;5024516;28;19935;-79
2021/03/09 09:45:40;;;;;;;;;;;;;;;4.26;95.18;99069.44;5029735;28;20055;-80
2021/03/09 09:48:07;;;;;;;;;;;;;;;4.03;95.64;99076.34;5052647;28;19999;-80
2021/03/09 09:50:33;;;;;;;;;;;;;;;4.08;95.96;99079.72;5032229;28;19970;-79
2021/03/09 09:52:59;;;;;;;;;;;;;;;4.11;95.28;99070.38;5030169;28;19924;-79
2021/03/09 09:55:25;;;;;;;;;;;;;;;3.74;97.06;99070.53;5027879;28;19976;-82
2021/03/09 09:57:52;;;;;;;;;;;;;;;3.97;96.45;99077.25;5037676;28;19913;-81
2021/03/09 10:00:19;;;;;;;;;;;;;;;4.12;95.53;99083.94;5036483;28;19912;-79
2021/03/09 10:02:44;;;;;;;;;;;;;;;4.27;93.92;99080.50;5028509;28;20266;-80
2021/03/09 10:05:25;;;;;;;;;;;;;;;4.27;94.34;99076.25;5029827;28;19928;-81
2021/03/09 10:07:50;;;;;;;;;;;;;;;4.13;95.48;99076.31;5031357;28;19917;-81
2021/03/09 10:10:16;;;;;;;;;;;;;;;4.17;95.14;99072.03;5023539;28;19971;-81
2021/03/09 10:12:41;;;;;;;;;;;;;;;4.01;94.41;99076.34;5010753;28;19917;-80
2021/03/09 10:15:07;;;;;;;;;;;;;;;3.98;95.91;99069.56;5048702;28;19967;-79
2021/03/09 10:17:33;;;;;;;;;;;;;;;4.18;95.79;99069.47;5052351;28;20378;-81
2021/03/09 10:19:58;;;;;;;;;;;;;;;4.03;95.60;99067.00;5009467;28;19913;-80
2021/03/09 10:22:24;;;;;;;;;;;;;;;4.13;96.21;99073.75;5021426;28;19929;-79
2021/03/09 10:24:49;;;;;;;;;;;;;;;4.24;95.95;99070.28;5026026;28;19917;-81
2021/03/09 10:27:19;;;;;;;;;;;;;;;4.29;95.26;99074.53;5002406;28;19917;-81
2021/03/09 10:29:44;;;;;;;;;;;;;;;4.57;95.42;99070.09;5027869;28;20518;-78
2021/03/09 10:32:16;;;;;;;;;;;;;;;4.52;95.14;99076.94;5026038;28;19936;-79
2021/03/09 10:34:41;;;;;;;;;;;;;;;4.51;95.09;99070.13;5025231;28;19928;-81
2021/03/09 10:37:07;;;;;;;;;;;;;;;4.30;96.12;99073.66;5030287;28;19913;-80
2021/03/09 10:39:33;;;;;;;;;;;;;;;4.39;95.81;99076.16;4981743;28;19921;-82
2021/03/09 10:42:18;;;;;;;;;;;;;;;4.28;96.71;99074.53;5024266;28;20499;-80
2021/03/09 10:44:43;;;;;;;;;;;;;;;4.01;97.50;99073.81;5046635;28;19920;-80
2021/03/09 10:47:11;;;;;;;;;;;;;;;4.49;95.31;99066.75;5029656;28;19916;-81
2021/03/09 10:49:36;;;;;;;;;;;;;;;4.10;97.44;99072.91;5049937;28;19924;-80
2021/03/09 10:52:04;;;;;;;;;;;;;;;4.28;96.74;99071.97;5023543;28;19924;-81
2021/03/09 10:54:30;;;;;;;;;;;;;;;4.38;96.45;99066.00;5030536;28;19917;-81
2021/03/09 10:56:56;;;;;;;;;;;;;;;4.36;96.30;99071.09;5029113;28;20285;-80
2021/03/09 10:59:22;;;;;;;;;;;;;;;3.59;99.93;99083.28;5016799;28;19923;-80
2021/03/09 11:01:47;;;;;;;;;;;;;;;4.22;98.71;99077.09;5031431;28;19917;-79
2021/03/09 11:04:12;;;;;;;;;;;;;;;4.18;98.06;99077.13;5047269;28;19944;-80
2021/03/09 11:06:38;;;;;;;;;;;;;;;4.27;97.68;99075.41;5040405;28;19986;-80
2021/03/09 11:09:04;;;;;;;;;;;;;;;4.01;99.35;99073.81;5031093;28;19956;-81
2021/03/09 11:11:29;;;;;;;;;;;;;;;4.03;99.55;99081.44;5033282;28;19980;-81
2021/03/09 11:13:54;;;;;;;;;;;;;;;4.32;98.91;99073.66;5032739;28;20383;-81
2021/03/09 11:16:20;;;;;;;;;;;;;;;4.38;96.18;99068.53;5031235;28;20634;-80
2021/03/09 11:18:45;;;;;;;;;;;;;;;4.29;96.56;99073.66;5030919;28;19916;-81
2021/03/09 11:21:11;;;;;;;;;;;;;;;4.39;96.67;99075.31;5045274;28;19920;-78
2021/03/09 11:23:36;;;;;;;;;;;;;;;4.29;97.14;99073.66;5047396;28;19924;-80
2021/03/09 11:26:02;;;;;;;;;;;;;;;3.93;99.16;99085.75;5045838;28;19927;-81
2021/03/09 11:28:27;;;;;;;;;;;;;;;3.63;100.00;99087.53;5030854;28;19947;-81
2021/03/09 11:30:53;;;;;;;;;;;;;;;4.14;99.16;99075.44;5033098;28;19917;-79
2021/03/09 11:33:18;;;;;;;;;;;;;;;4.59;96.50;99068.38;5031934;28;19943;-81
2021/03/09 11:35:43;;;;;;;;;;;;;;;4.26;97.13;99078.78;5015321;28;20765;-81
2021/03/09 11:38:09;;;;;;;;;;;;;;;4.23;97.95;99073.72;5022397;28;19939;-80
2021/03/09 11:40:35;;;;;;;;;;;;;;;4.45;96.86;99074.41;5025016;28;19917;-81
2021/03/09 11:43:00;;;;;;;;;;;;;;;4.46;96.96;99071.88;5031144;28;20003;-80
2021/03/09 11:45:26;;;;;;;;;;;;;;;4.34;96.62;99077.06;5031844;28;19916;-81
2021/03/09 11:47:51;;;;;;;;;;;;;;;4.51;96.28;99062.47;5049383;28;19917;-81
2021/03/09 11:50:16;;;;;;;;;;;;;;;4.53;96.18;99070.97;5044577;28;19920;-79
2021/03/09 11:52:42;;;;;;;;;;;;;;;4.34;96.44;99071.97;5028046;28;20541;-80
2021/03/09 11:55:08;;;;;;;;;;;;;;;4.12;97.37;99074.59;5045740;28;19984;-79
2021/03/09 11:57:33;;;;;;;;;;;;;;;4.72;96.41;99075.94;5048070;28;19928;-79
2021/03/09 11:59:59;;;;;;;;;;;;;;;4.81;94.84;99070.78;5026743;28;19925;-79
2021/03/09 12:02:25;;;;;;;;;;;;;;;4.51;96.52;99075.22;5021690;28;20018;-81
2021/03/09 12:04:50;;;;;;;;;;;;;;;4.31;96.76;99066.84;5024692;28;19931;-82
2021/03/09 12:07:16;;;;;;;;;;;;;;;4.33;96.28;99075.34;5033120;28;20380;-80
2021/03/09 12:09:43;;;;;;;;;;;;;;;4.67;94.59;99059.84;5034017;28;19917;-82
2021/03/09 12:12:09;;;;;;;;;;;;;;;4.25;96.78;99057.56;5048603;28;19925;-80
2021/03/09 12:14:34;;;;;;;;;;;;;;;4.45;96.43;99064.22;5042137;28;20293;-80
2021/03/09 12:16:59;;;;;;;;;;;;;;;3.83;99.76;99068.78;5031413;28;19959;-81
2021/03/09 12:19:25;;;;;;;;;;;;;;;3.82;99.18;99057.75;5033001;28;19916;-80
2021/03/09 12:21:50;;;;;;;;;;;;;;;4.46;97.67;99056.56;5012642;28;19925;-80
2021/03/09 12:24:15;;;;;;;;;;;;;;;4.21;98.25;99050.78;5040025;28;20271;-81
2021/03/09 12:26:41;;;;;;;;;;;;;;;4.38;97.53;99053.25;5040781;28;20297;-81
2021/03/09 12:29:06;;;;;;;;;;;;;;;4.58;96.20;99046.31;5043912;28;20377;-79
2021/03/09 12:31:31;;;;;;;;;;;;;;;4.66;96.81;99037.75;5024520;28;19920;-80
2021/03/09 12:33:57;;;;;;;;;;;;;;;4.40;98.23;99042.16;5042622;28;19916;-79
2021/03/09 12:36:22;;;;;;;;;;;;;;;4.69;96.09;99037.72;5036816;28;19947;-81
2021/03/09 12:38:48;;;;;;;;;;;;;;;4.19;98.64;99047.38;5040593;28;19916;-79
2021/03/09 12:41:13;;;;;;;;;;;;;;;4.67;97.60;99036.88;5047835;28;19925;-79
2021/03/09 12:43:38;;;;;;;;;;;;;;;4.79;97.13;99032.53;5059342;28;19927;-81
2021/03/09 12:46:04;;;;;;;;;;;;;;;4.43;97.71;99043.84;5041297;28;19920;-81
2021/03/09 12:48:29;;;;;;;;;;;;;;;4.48;99.57;99041.28;5041646;28;19927;-81
2021/03/09 12:50:54;;;;;;;;;;;;;;;4.50;97.52;99032.75;5041382;28;19969;-81
2021/03/09 12:53:20;;;;;;;;;;;;;;;4.44;99.50;99034.50;5038725;28;19916;-79
2021/03/09 12:55:45;;;;;;;;;;;;;;;4.68;97.89;99031.78;5059461;28;20697;-81
2021/03/09 12:58:10;;;;;;;;;;;;;;;4.48;97.63;99039.56;5039648;28;20459;-79